• Join FlightAware (Why Join?)
  • Login
  • US Flag 
02:09PM EDT


 

Airport Tracker/Info


-or-


 

Live Flight TrackerFlight Track Log ✈ QFA1100 ✈ 04-Sep-2013 ✈ YPPH / PER - YNWN / ZNE

Flight Track Log - Related Links

Times and Time Zones

All times are in EDT time to prevent confusion due to time zone crossing. See the QFA1100 flight status page for this flight to view local times or setup timezone preferences in your user account.

Time Position Orientation Groundspeed Altitude Reporting Facility
EDT Latitude Longitude Course Direction KTS MPH feet Rate Location/Type
01:26AM -31.9310 115.9610 106° East  Level FlightAware
01:31AM -31.9350 115.9670 190° South 98 113 60 Level FlightAware
01:32AM -31.9470 115.9630 196° South 155 178 900 Level FlightAware
01:32AM -31.9610 115.9590 194° South 148 170 600 1,680 Climbing FlightAware
01:33AM -31.9800 115.9540 193° South 183 211 1,300 1,860 Climbing FlightAware
01:33AM -31.9980 115.9500 191° South 194 223 2,000 2,460 Climbing FlightAware
01:33AM -32.0160 115.9540 169° South 210 242 3,000 3,120 Climbing FlightAware
01:33AM -32.0210 115.9570 153° Southeast 207 238 3,300 3,000 Climbing FlightAware
01:33AM -32.0290 115.9650 140° Southeast 222 255 3,700 2,400 Climbing FlightAware
01:34AM -32.0360 115.9750 130° Southeast 243 280 4,100 2,100 Climbing FlightAware
01:34AM -32.0400 115.9880 110° East 255 293 4,400 2,400 Climbing FlightAware
01:34AM -32.0460 116.0160 104° East 268 308 5,300 2,880 Climbing FlightAware
01:34AM -32.0510 116.0380 105° East 276 318 6,100 2,880 Climbing FlightAware
01:35AM -32.0580 116.0680 105° East 285 328 7,000 2,880 Climbing FlightAware
01:35AM -32.0630 116.0900 105° East 291 335 7,800 3,240 Climbing FlightAware
01:35AM -32.0710 116.1210 107° East 295 339 8,900 3,120 Climbing FlightAware
01:36AM -32.0780 116.1520 105° East 303 349 9,900 2,160 Climbing FlightAware
01:36AM -32.0840 116.2030 98° East 346 398 10,700 1,500 Climbing FlightAware
01:36AM -32.0790 116.2230 74° East 363 418 10,900 1,800 Climbing FlightAware
01:36AM -32.0710 116.2390 59° Northeast 370 426 11,300 2,880 Climbing FlightAware
01:37AM -32.0290 116.2920 47° Northeast 377 434 13,100 3,300 Climbing FlightAware
01:38AM -31.9904 116.3394 47° Northeast 370 426 15,100 3,060 Climbing Aus ATC (RADAR)
01:38AM -31.9860 116.3440 47° Northeast 380 437 14,900 2,880 Descending FlightAware
01:38AM -31.9470 116.3936 47° Northeast 382 440 16,800 3,000 Climbing Aus ATC (RADAR)
01:38AM -31.9370 116.4070 47° Northeast 399 459 16,900 1,980 Climbing FlightAware
01:39AM -31.8910 116.4630 46° Northeast 411 473 18,200 2,280 Climbing FlightAware
01:40AM -31.8380 116.5290 47° Northeast 427 491 19,800 2,220 Climbing FlightAware
01:40AM -31.7950 116.5820 46° Northeast 447 514 20,800 2,160 Climbing FlightAware
01:41AM -31.7440 116.6450 46° Northeast 450 518 22,200 2,400 Climbing FlightAware
01:41AM -31.6860 116.7160 46° Northeast 455 524 23,800 2,160 Climbing FlightAware
01:42AM -31.6350 116.7800 47° Northeast 470 541 24,900 1,740 Climbing FlightAware
01:42AM -31.5880 116.8370 46° Northeast 479 551 25,700 1,860 Climbing FlightAware
01:43AM -31.5326 116.8854 46° Northeast 464 534 26,900 1,680 Climbing Aus ATC (RADAR)
01:43AM -31.5250 116.8890 46° Northeast 457 526 26,700 3,240 Descending FlightAware
01:43AM -31.4640 116.9158 46° Northeast 447 514 28,800 3,600 Climbing Aus ATC (RADAR)
01:44AM -31.4500 116.9220 46° Northeast 427 491 29,100 1,920 Climbing FlightAware
01:44AM -31.3950 116.9440 19° North 428 493 30,000 1,500 Climbing FlightAware
01:45AM -31.3329 116.9698 19° North 435 501 30,700 840 Climbing Aus ATC (RADAR)
01:45AM -31.3280 116.9720 19° North 443 510 30,500 780 Descending FlightAware
01:45AM -31.2590 117.0000 19° North 440 506 31,200 1,920 Climbing FlightAware
01:46AM -31.1800 117.0330 20° North 426 490 32,900 2,160 Climbing FlightAware
01:47AM -31.1140 117.0590 19° North 429 494 33,900 1,740 Climbing FlightAware
01:47AM -31.0600 117.0820 20° North 422 486 34,800 900 Climbing FlightAware
01:48AM -30.9840 117.1120 19° North 440 506 35,000 720 Climbing FlightAware
01:48AM -30.9170 117.1400 20° North 442 509 35,700 960 Climbing FlightAware
01:49AM -30.8600 117.1630 19° North 445 512 36,100 960 Climbing FlightAware
01:50AM -30.7710 117.2040 22° Northeast 451 519 36,900 960 Climbing FlightAware
01:50AM -30.7040 117.2350 22° Northeast 454 522 37,400 840 Climbing FlightAware
01:51AM -30.6340 117.2670 21° North 450 518 37,900 720 Climbing FlightAware
01:51AM -30.5650 117.2990 22° Northeast 453 521 38,300 600 Climbing FlightAware
01:52AM -30.4960 117.3310 22° Northeast 464 534 38,600 480 Climbing FlightAware
01:52AM -30.4270 117.3620 21° North 467 537 38,900 300 Climbing FlightAware
01:53AM -30.3660 117.3900 22° Northeast 469 540 39,000 60 Climbing FlightAware
01:54AM -30.2850 117.4280 22° Northeast 470 541 39,000  Level FlightAware
01:54AM -30.2140 117.4600 21° North 471 542 39,000  Level FlightAware
01:55AM -30.1440 117.4920 22° Northeast 470 541 39,000  Level FlightAware
01:55AM -30.0730 117.5240 21° North 470 541 39,000 240 Level FlightAware
01:56AM -30.0072 117.5531 21° North 469 540 39,300  Climbing Aus ATC (RADAR)
01:56AM -29.9940 117.5600 21° North 468 539 39,000 -420 Descending FlightAware
01:57AM -29.9190 117.5940 21° North 467 537 39,000  Level FlightAware
01:57AM -29.8570 117.6220 21° North 465 535 39,000  Level FlightAware
01:58AM -29.7860 117.6540 21° North 465 535 39,000 240 Level FlightAware
01:58AM -29.7070 117.6898 21° North 462 532 39,300  Climbing Aus ATC (RADAR)
01:59AM -29.6860 117.6990 21° North 464 534 39,000 -360 Descending FlightAware
01:59AM -29.6030 117.7370 22° Northeast 454 522 39,000 240 Level FlightAware
02:00AM -29.5463 117.7601 22° Northeast 466 536 39,300  Climbing Aus ATC (RADAR)
02:00AM -29.5290 117.7700 22° Northeast 454 522 39,000 -420 Descending FlightAware
02:01AM -29.4530 117.8040 21° North 463 533 39,000  Level FlightAware
02:01AM -29.3960 117.8290 21° North 463 533 39,000  Level FlightAware
02:02AM -29.3200 117.8630 21° North 466 536 39,000  Level FlightAware
02:02AM -29.2470 117.8960 22° Northeast 466 536 39,000  Level FlightAware
02:03AM -29.1620 117.9340 21° North 466 536 39,000  Level FlightAware
02:04AM -29.1010 117.9610 21° North 466 536 39,000  Level FlightAware
02:04AM -29.0160 117.9990 21° North 466 536 39,000  Level FlightAware
02:05AM -28.9350 118.0350 21° North 465 535 39,000 180 Level FlightAware
02:05AM -28.8539 118.0671 21° North 466 536 39,300  Climbing Aus ATC (RADAR)
02:06AM -28.8420 118.0760 21° North 465 535 39,000 -420 Descending FlightAware
02:06AM -28.7810 118.1030 21° North 465 535 39,000  Level FlightAware
02:07AM -28.7190 118.1300 21° North 465 535 39,000  Level FlightAware
02:07AM -28.6560 118.1580 21° North 465 535 39,000  Level FlightAware
02:08AM -28.5950 118.1850 21° North 465 535 39,000  Level FlightAware
02:09AM -28.5330 118.2120 21° North 465 535 39,000  Level FlightAware
02:09AM -28.4720 118.2380 21° North 465 535 39,000  Level FlightAware
02:10AM -28.4090 118.2660 21° North 465 535 39,000  Level FlightAware
02:10AM -28.3470 118.2930 21° North 465 535 39,000 120 Level FlightAware
02:11AM -28.1794 118.3577 21° North 469 540 39,200  Climbing Aus ATC (RADAR)
02:11AM -28.2860 118.3200 21° North 465 535 39,000 -360 Descending FlightAware
02:12AM -28.2240 118.3460 20° North 465 535 39,000  Level FlightAware
02:12AM -28.0420 118.4280 22° Northeast 474 545 39,000  Level FlightAware
02:13AM -27.9740 118.4570 21° North 474 545 39,000  Level FlightAware
02:13AM -27.9120 118.4850 22° Northeast 474 545 39,000  Level FlightAware
02:14AM -27.8490 118.5120 21° North 474 545 39,000  Level FlightAware
02:14AM -27.7822 118.5381 167° South 39,000  Level Aus ATC (Calculated)
02:15AM -27.7860 118.5390 21° North 474 545 39,000  Level FlightAware
02:15AM -27.7240 118.5660 21° North 474 545 39,000  Level FlightAware
02:16AM -27.6610 118.5930 21° North 474 545 39,000  Level FlightAware
02:16AM -27.5980 118.6200 21° North 474 545 39,000  Level FlightAware
02:17AM -27.5360 118.6480 22° Northeast 474 545 39,000  Level FlightAware
02:18AM -27.4710 118.6750 20° North 474 545 39,000  Level FlightAware
02:18AM -27.3356 118.7322 199° South 39,000  Level Aus ATC (Calculated)
02:18AM -27.4090 118.7030 20° North 474 545 39,000  Level FlightAware
02:19AM -27.3460 118.7300 21° North 474 545 39,000  Level FlightAware
02:19AM -27.2830 118.7570 21° North 474 545 39,000  Level FlightAware
02:20AM -27.2210 118.7840 21° North 474 545 39,000 120 Level FlightAware
02:21AM -27.0138 118.8862 21° North 540 621 39,200  Climbing Aus ATC (RADAR)
02:21AM -27.1560 118.8120 21° North 474 545 39,000 -300 Descending FlightAware
02:21AM -27.0940 118.8390 21° North 474 545 39,000 120 Level FlightAware
02:22AM -26.8636 118.9364 21° North 486 559 39,200  Climbing Aus ATC (RADAR)
02:22AM -27.0290 118.8660 21° North 474 545 39,000  Descending FlightAware
02:23AM -26.7199 118.9936 21° North 480 552 39,200 60 Climbing Aus ATC (RADAR)
02:25AM -26.4512 119.1086 21° North 450 518 39,200  Level Aus ATC (RADAR)
02:26AM -26.3790 119.1389 21° North 462 532 39,200  Level Aus ATC (RADAR)
02:27AM -26.2860 119.1788 21° North 470 541 39,200  Level Aus ATC (RADAR)
02:28AM -26.1076 119.2603 22° Northeast 481 554 39,200  Level Aus ATC (RADAR)
02:28AM -26.0464 119.2849 20° North 478 550 39,200  Level Aus ATC (RADAR)
02:30AM -25.9141 119.3395 20° North 473 544 39,200  Level Aus ATC (RADAR)
02:30AM -25.8209 119.3798 21° North 475 547 39,200  Level Aus ATC (RADAR)
02:31AM -25.7505 119.4083 20° North 470 541 39,200  Level Aus ATC (RADAR)
02:32AM -25.6600 119.4438 19° North 464 534 39,200  Level Aus ATC (RADAR)
02:33AM -25.4861 119.5166 21° North 471 542 39,200  Level Aus ATC (RADAR)
02:34AM -25.4243 119.5423 21° North 473 544 39,200 -120 Level Aus ATC (RADAR)
02:35AM -25.2999 119.5942 21° North 474 545 39,100 -60 Descending Aus ATC (RADAR)
02:35AM -25.2075 119.6322 20° North 473 544 39,100  Level Aus ATC (RADAR)
02:36AM -25.1336 119.6642 21° North 482 555 39,100 -600 Level Aus ATC (RADAR)
02:37AM -25.0436 119.6997 20° North 467 537 38,300 -1,980 Descending Aus ATC (RADAR)
02:38AM -24.9208 119.7478 20° North 469 540 35,700 -2,400 Descending Aus ATC (RADAR)
02:39AM -24.7953 119.7565 North 457 526 33,500 -2,400 Descending Aus ATC (RADAR)
02:40AM -24.6799 119.7582 North 415 478 31,000 -2,640 Descending Aus ATC (RADAR)
02:40AM -24.5912 119.7611 North 416 479 28,900 -2,760 Descending Aus ATC (RADAR)
02:41AM -24.5103 119.7658 North 422 486 27,100 -2,520 Descending Aus ATC (RADAR)
02:42AM -24.3595 119.7699 North 404 465 23,900 -2,520 Descending Aus ATC (RADAR)
02:44AM -24.2195 119.7741 North 394 453 20,700 -2,460 Descending Aus ATC (RADAR)
02:44AM -24.1636 119.7769 North 394 453 19,600 -2,220 Descending Aus ATC (RADAR)
02:45AM -24.1040 119.7777 North 373 429 18,300 -2,160 Descending Aus ATC (RADAR)
02:45AM -24.0230 119.8027 16° North 362 417 16,600 -2,040 Descending Aus ATC (RADAR)
02:49AM -23.5672 119.8036 360° North 1,700 -4,740 Descending Aus ATC (Calculated)
02:51AM -23.4178 119.8028 360° North  Level Estimated
02:52AM -23.4178 119.8028 176° South  Level Estimated
02:53AM -23.4178 119.8028 176° South  Level Estimated
02:54AM -23.4178 119.8028 176° South  Level Estimated
02:55AM -23.4178 119.8028 355° North  Level Estimated
02:56AM -23.4178 119.8028 355° North  Level Estimated
02:57AM -23.4178 119.8028 355° North  Level Estimated
02:58AM -23.4178 119.8028 355° North  Level Estimated
02:59AM -23.4178 119.8028 355° North  Level Estimated
03:00AM -23.4178 119.8028 355° North  Level Estimated
03:01AM -23.4178 119.8028 355° North  Level Estimated
03:02AM -23.4178 119.8028 355° North  Level Estimated